Shildon, United Kingdom
Current Conditions -  °F | °C
As of 7:20 PM on Tuesday 21 Oct 2014 (Local Time) from EGNV Reporting Station
Clear Clear  
Wind Chill: 39°   Ceiling: Unl
Heat Index: 46°   Visibility: 6mi
Dew Point: 32°   Wind: 22mph
Humidity: 57%   Direction: 290°WNW
Pressure: 29.83"   Gusts: NA
Location:  54.63°N, 1.64°W
Report Text: EGNV 211820Z 29019KT CAVOK 08/00 Q1010
Loading
Personal Weather Stations






























Interactive Weather Map
Tropical Storm Tracking
New forecast layout! Learn more

10-Day Weather Forecast

Advertisements
Track Severe Weather on mobile